Time;durP1;ratioP1;P1;durP2;ratioP2;P2;SDS_P1;SDS_P2;PMS_P1;PMS_P2;Temp;Humidity;BMP_temperature;BMP_pressure;BME280_temperature;BME280_humidity;BME280_pressure;Samples;Min_cycle;Max_cycle;Signal;HPM_P1;HPM_P2
2022/11/14 00:02:05;;;;;;;76.82;32.03;;;;;;;;;;6260334;22;20003;-83
2022/11/14 00:04:31;;;;;;;76.43;31.58;;;;;;;;;;6260353;22;20007;-84
2022/11/14 00:06:57;;;;;;;78.50;30.95;;;;;;;;;;6260217;22;20091;-85
2022/11/14 00:09:27;;;;;;;76.32;31.30;;;;;;;;;;6260514;22;20006;-84
2022/11/14 00:11:53;;;;;;;80.78;30.40;;;;;;;;;;6287635;22;20004;-83
2022/11/14 00:14:19;;;;;;;84.57;34.60;;;;;;;;;;6288359;22;20034;-83
2022/11/14 00:16:45;;;;;;;78.55;32.90;;;;;;;;;;6288397;22;20025;-82
2022/11/14 00:19:12;;;;;;;90.20;31.73;;;;;;;;;;6260976;22;20006;-82
2022/11/14 00:21:38;;;;;;;91.28;33.15;;;;;;;;;;6260308;22;20023;-81
2022/11/14 00:24:04;;;;;;;80.68;31.38;;;;;;;;;;6261820;22;20095;-83
2022/11/14 00:26:30;;;;;;;86.53;32.83;;;;;;;;;;6289455;22;20030;-82
2022/11/14 00:28:56;;;;;;;87.60;32.72;;;;;;;;;;6289835;22;19996;-84
2022/11/14 00:31:22;;;;;;;80.90;32.13;;;;;;;;;;6262649;22;20114;-83
2022/11/14 00:33:48;;;;;;;87.18;32.08;;;;;;;;;;6263413;22;20023;-83
2022/11/14 00:36:14;;;;;;;83.30;32.70;;;;;;;;;;6291101;22;20004;-81
2022/11/14 00:38:40;;;;;;;77.10;32.88;;;;;;;;;;6263305;22;20022;-81
2022/11/14 00:41:06;;;;;;;79.53;32.17;;;;;;;;;;6290294;22;19995;-82
2022/11/14 00:43:32;;;;;;;80.13;34.47;;;;;;;;;;6290040;22;20000;-84
2022/11/14 00:45:58;;;;;;;89.65;35.58;;;;;;;;;;6269088;22;20003;-79
2022/11/14 00:48:24;;;;;;;89.72;35.35;;;;;;;;;;6298132;22;19996;-80
2022/11/14 00:50:50;;;;;;;81.88;32.28;;;;;;;;;;6301455;22;20063;-81
2022/11/14 00:53:17;;;;;;;86.22;34.22;;;;;;;;;;6300011;22;20001;-84
2022/11/14 00:55:43;;;;;;;79.63;33.15;;;;;;;;;;6272513;22;20030;-82
2022/11/14 00:58:10;;;;;;;95.68;35.63;;;;;;;;;;6290850;22;20000;-81
2022/11/14 01:00:36;;;;;;;86.50;33.97;;;;;;;;;;6289942;22;20319;-82
2022/11/14 01:03:02;;;;;;;78.30;33.53;;;;;;;;;;6298176;22;20000;-82
2022/11/14 01:05:28;;;;;;;78.32;35.00;;;;;;;;;;6295415;22;20352;-82
2022/11/14 01:07:54;;;;;;;91.35;36.75;;;;;;;;;;6291255;22;20000;-82
2022/11/14 01:10:20;;;;;;;89.90;37.28;;;;;;;;;;6261559;22;20447;-83
2022/11/14 01:12:47;;;;;;;99.72;36.15;;;;;;;;;;6289888;22;19984;-82
2022/11/14 01:15:13;;;;;;;101.07;37.80;;;;;;;;;;6262203;22;20039;-82
2022/11/14 01:17:39;;;;;;;100.75;39.50;;;;;;;;;;6289437;22;20006;-82
2022/11/14 01:20:05;;;;;;;94.88;37.30;;;;;;;;;;6291292;22;20000;-84
2022/11/14 01:22:32;;;;;;;91.22;37.03;;;;;;;;;;6275978;22;20000;-82
2022/11/14 01:24:58;;;;;;;86.05;36.25;;;;;;;;;;6274287;22;20038;-82
2022/11/14 01:27:24;;;;;;;88.93;36.55;;;;;;;;;;6299738;22;20004;-84
2022/11/14 01:29:50;;;;;;;78.50;34.92;;;;;;;;;;6296245;22;20028;-82
2022/11/14 01:32:17;;;;;;;96.18;36.33;;;;;;;;;;6262706;22;20010;-83
2022/11/14 01:34:43;;;;;;;81.82;35.55;;;;;;;;;;6262507;22;20362;-83
2022/11/14 01:37:09;;;;;;;87.53;35.78;;;;;;;;;;6288839;22;20008;-82
2022/11/14 01:39:35;;;;;;;84.22;35.45;;;;;;;;;;6259696;22;20336;-82
2022/11/14 01:42:01;;;;;;;82.18;33.47;;;;;;;;;;6262245;22;20138;-84
2022/11/14 01:44:38;;;;;;;81.32;34.97;;;;;;;;;;6256799;23;20016;-83
2022/11/14 01:47:04;;;;;;;86.50;36.17;;;;;;;;;;6258948;23;20011;-83
2022/11/14 01:49:35;;;;;;;79.53;33.58;;;;;;;;;;6258556;23;20019;-84
2022/11/14 01:52:03;;;;;;;78.20;32.58;;;;;;;;;;6256211;23;20009;-83
2022/11/14 01:54:30;;;;;;;70.03;32.65;;;;;;;;;;6256742;23;19992;-83
2022/11/14 01:56:58;;;;;;;79.57;33.88;;;;;;;;;;6256887;23;20100;-83
2022/11/14 01:59:27;;;;;;;73.30;32.38;;;;;;;;;;6258105;23;20088;-83
2022/11/14 02:01:54;;;;;;;87.88;35.00;;;;;;;;;;6256060;23;20000;-83
2022/11/14 02:04:31;;;;;;;76.28;31.90;;;;;;;;;;6257161;23;20079;-82
2022/11/14 02:06:59;;;;;;;81.28;34.72;;;;;;;;;;6257343;23;20071;-83
2022/11/14 02:09:25;;;;;;;80.63;33.22;;;;;;;;;;6254722;23;20079;-82
2022/11/14 02:11:52;;;;;;;78.32;32.63;;;;;;;;;;6254957;23;20000;-83
2022/11/14 02:14:19;;;;;;;86.22;34.90;;;;;;;;;;6257889;23;20000;-83
2022/11/14 02:16:45;;;;;;;73.60;34.90;;;;;;;;;;6256627;23;20020;-83
2022/11/14 02:19:13;;;;;;;89.55;37.70;;;;;;;;;;6256985;23;20007;-83
2022/11/14 02:21:39;;;;;;;78.63;33.97;;;;;;;;;;6254532;23;20042;-81
2022/11/14 02:24:09;;;;;;;76.85;33.45;;;;;;;;;;6255253;23;20000;-83
2022/11/14 02:26:35;;;;;;;74.72;32.60;;;;;;;;;;6254299;23;20000;-83
2022/11/14 02:29:01;;;;;;;82.43;35.50;;;;;;;;;;6254696;23;20011;-83
2022/11/14 02:31:27;;;;;;;83.40;34.30;;;;;;;;;;6257253;23;20118;-83
2022/11/14 02:33:53;;;;;;;78.28;33.92;;;;;;;;;;6255785;23;20008;-83
2022/11/14 02:36:19;;;;;;;81.30;33.65;;;;;;;;;;6254613;23;20028;-83
2022/11/14 02:38:45;;;;;;;73.10;33.45;;;;;;;;;;6256041;23;20447;-84
2022/11/14 02:41:11;;;;;;;71.07;32.28;;;;;;;;;;6255838;23;20079;-84
2022/11/14 02:43:37;;;;;;;78.50;31.35;;;;;;;;;;6261150;22;20001;-84
2022/11/14 02:46:03;;;;;;;80.68;33.70;;;;;;;;;;6289871;22;20010;-84
2022/11/14 02:48:29;;;;;;;77.18;35.13;;;;;;;;;;6270394;22;20008;-83
2022/11/14 02:50:56;;;;;;;75.32;33.08;;;;;;;;;;6303216;22;20036;-83
2022/11/14 02:53:22;;;;;;;71.05;31.35;;;;;;;;;;6295090;22;20225;-84
2022/11/14 02:55:48;;;;;;;70.10;32.63;;;;;;;;;;6259453;22;20007;-83
2022/11/14 02:58:14;;;;;;;77.45;33.35;;;;;;;;;;6290779;22;20007;-83
2022/11/14 03:00:40;;;;;;;74.60;31.65;;;;;;;;;;6290114;22;20027;-84
2022/11/14 03:03:06;;;;;;;76.20;30.25;;;;;;;;;;6259826;22;20498;-83
2022/11/14 03:05:32;;;;;;;80.80;31.10;;;;;;;;;;6286476;22;20002;-83
2022/11/14 03:07:58;;;;;;;64.80;29.05;;;;;;;;;;6260108;22;20004;-83
2022/11/14 03:10:25;;;;;;;64.93;29.17;;;;;;;;;;6287027;22;20038;-83
2022/11/14 03:12:54;;;;;;;64.40;28.45;;;;;;;;;;6286879;22;19996;-83
2022/11/14 03:15:20;;;;;;;68.40;29.08;;;;;;;;;;6257814;22;20440;-83
2022/11/14 03:17:46;;;;;;;63.30;29.95;;;;;;;;;;6258137;22;20324;-83
2022/11/14 03:20:12;;;;;;;67.50;28.35;;;;;;;;;;6286252;22;19996;-83
2022/11/14 03:22:38;;;;;;;62.08;28.50;;;;;;;;;;6286497;22;20024;-84
2022/11/14 03:25:05;;;;;;;68.65;31.33;;;;;;;;;;6259461;22;20015;-83
2022/11/14 03:27:31;;;;;;;69.72;29.30;;;;;;;;;;6286758;22;20000;-82
2022/11/14 03:29:57;;;;;;;64.75;31.30;;;;;;;;;;6288048;22;20007;-81
2022/11/14 03:32:23;;;;;;;66.25;29.58;;;;;;;;;;6265269;22;20008;-84
2022/11/14 03:34:49;;;;;;;79.03;31.95;;;;;;;;;;6289832;22;19999;-83
2022/11/14 03:37:15;;;;;;;72.50;32.65;;;;;;;;;;6285742;22;20018;-82
2022/11/14 03:39:41;;;;;;;78.22;32.55;;;;;;;;;;6285150;22;20093;-82
2022/11/14 03:42:08;;;;;;;75.00;30.45;;;;;;;;;;6257140;22;20031;-82
2022/11/14 03:44:34;;;;;;;76.28;32.67;;;;;;;;;;6285991;22;20014;-83
2022/11/14 03:47:00;;;;;;;98.22;34.60;;;;;;;;;;6284649;22;20003;-83
2022/11/14 03:49:26;;;;;;;90.47;32.75;;;;;;;;;;6285155;22;20002;-83
2022/11/14 03:51:52;;;;;;;87.18;33.22;;;;;;;;;;6257993;22;20031;-83
2022/11/14 03:54:18;;;;;;;77.95;33.55;;;;;;;;;;6285933;22;20004;-83
2022/11/14 03:56:44;;;;;;;84.65;34.00;;;;;;;;;;6258835;22;19999;-83
2022/11/14 03:59:10;;;;;;;89.53;33.58;;;;;;;;;;6285540;22;20014;-83
2022/11/14 04:01:36;;;;;;;77.07;34.90;;;;;;;;;;6284471;22;20003;-82
2022/11/14 04:04:02;;;;;;;86.43;37.03;;;;;;;;;;6258675;22;20010;-81
2022/11/14 04:06:28;;;;;;;91.00;36.95;;;;;;;;;;6261272;22;19999;-80
2022/11/14 04:08:55;;;;;;;87.75;33.97;;;;;;;;;;6260625;22;20455;-82
2022/11/14 04:11:21;;;;;;;92.57;35.28;;;;;;;;;;6260871;22;20057;-82
2022/11/14 04:13:47;;;;;;;90.18;37.22;;;;;;;;;;6287716;22;20057;-82
2022/11/14 04:16:13;;;;;;;88.88;35.47;;;;;;;;;;6260244;22;20015;-82
2022/11/14 04:18:39;;;;;;;90.60;36.22;;;;;;;;;;6286070;22;20000;-82
2022/11/14 04:21:06;;;;;;;85.45;36.42;;;;;;;;;;6257575;22;20003;-83
2022/11/14 04:23:32;;;;;;;90.57;38.55;;;;;;;;;;6259707;22;20056;-83
2022/11/14 04:25:58;;;;;;;99.13;39.50;;;;;;;;;;6259536;22;20057;-83
2022/11/14 04:28:24;;;;;;;110.82;42.75;;;;;;;;;;6287975;22;19999;-84
2022/11/14 04:30:50;;;;;;;99.65;39.97;;;;;;;;;;6286757;22;20000;-83
2022/11/14 04:33:16;;;;;;;97.78;39.25;;;;;;;;;;6259095;22;20034;-84
2022/11/14 04:35:42;;;;;;;107.55;39.95;;;;;;;;;;6258329;22;20061;-83
2022/11/14 04:38:09;;;;;;;112.40;43.40;;;;;;;;;;6258332;22;20004;-82
2022/11/14 04:40:35;;;;;;;101.03;39.70;;;;;;;;;;6282305;22;20010;-81
2022/11/14 04:43:01;;;;;;;97.88;40.88;;;;;;;;;;6284043;22;20440;-83
2022/11/14 04:45:27;;;;;;;104.53;38.10;;;;;;;;;;6284307;22;20004;-83
2022/11/14 04:47:53;;;;;;;98.28;40.50;;;;;;;;;;6284510;22;19995;-82
2022/11/14 04:50:20;;;;;;;104.90;40.42;;;;;;;;;;6257480;22;20000;-82
2022/11/14 04:52:47;;;;;;;106.82;41.75;;;;;;;;;;6259620;22;20007;-82
2022/11/14 04:55:13;;;;;;;104.35;40.85;;;;;;;;;;6264398;22;20076;-82
2022/11/14 04:57:39;;;;;;;93.85;40.90;;;;;;;;;;6288104;22;20062;-82
2022/11/14 05:00:06;;;;;;;99.90;39.75;;;;;;;;;;6285603;22;20019;-82
2022/11/14 05:02:32;;;;;;;92.38;38.55;;;;;;;;;;6285572;22;20015;-83
2022/11/14 05:04:58;;;;;;;100.72;40.58;;;;;;;;;;6258753;22;20057;-82
2022/11/14 05:07:24;;;;;;;98.93;39.25;;;;;;;;;;6285358;22;19996;-83
2022/11/14 05:09:50;;;;;;;103.38;42.13;;;;;;;;;;6258018;22;20007;-82
2022/11/14 05:12:16;;;;;;;111.78;40.42;;;;;;;;;;6284608;22;19999;-81
2022/11/14 05:14:42;;;;;;;105.00;40.53;;;;;;;;;;6257399;22;20033;-83
2022/11/14 05:17:08;;;;;;;112.10;44.33;;;;;;;;;;6257455;22;20004;-83
2022/11/14 05:19:34;;;;;;;103.47;42.50;;;;;;;;;;6255205;22;20008;-83
2022/11/14 05:22:00;;;;;;;110.13;43.22;;;;;;;;;;6283403;22;20035;-83
2022/11/14 05:24:27;;;;;;;100.47;41.30;;;;;;;;;;6282736;22;20016;-84
2022/11/14 05:26:53;;;;;;;106.13;42.03;;;;;;;;;;6284869;22;19996;-83
2022/11/14 05:29:19;;;;;;;97.10;40.03;;;;;;;;;;6282361;22;19996;-81
2022/11/14 05:31:45;;;;;;;110.22;43.80;;;;;;;;;;6256291;22;20030;-82
2022/11/14 05:34:11;;;;;;;93.07;37.63;;;;;;;;;;6255457;22;20312;-84
2022/11/14 05:36:37;;;;;;;96.03;38.45;;;;;;;;;;6255018;22;20011;-84
2022/11/14 05:39:03;;;;;;;89.47;37.90;;;;;;;;;;6256064;22;20004;-82
2022/11/14 05:41:29;;;;;;;86.93;37.22;;;;;;;;;;6255027;22;20063;-84
2022/11/14 05:43:55;;;;;;;89.70;38.17;;;;;;;;;;6255980;22;20015;-84
2022/11/14 05:46:21;;;;;;;86.63;37.95;;;;;;;;;;6282770;22;20085;-84
2022/11/14 05:48:47;;;;;;;96.43;38.30;;;;;;;;;;6283751;22;20462;-84
2022/11/14 05:51:13;;;;;;;98.28;38.70;;;;;;;;;;6258782;22;20025;-84
2022/11/14 05:53:40;;;;;;;82.68;35.97;;;;;;;;;;6284174;22;20643;-84
2022/11/14 05:56:07;;;;;;;90.97;37.95;;;;;;;;;;6256744;22;20082;-83
2022/11/14 05:58:34;;;;;;;85.25;36.97;;;;;;;;;;6283304;22;20439;-85
2022/11/14 06:01:03;;;;;;;83.15;36.05;;;;;;;;;;6282168;22;20012;-86
2022/11/14 06:03:36;;;;;;;84.72;36.67;;;;;;;;;;6282645;22;19996;-84
2022/11/14 06:06:03;;;;;;;85.72;36.22;;;;;;;;;;6254989;22;20010;-84
2022/11/14 06:08:30;;;;;;;82.82;35.88;;;;;;;;;;6254940;22;20010;-85
2022/11/14 06:11:00;;;;;;;97.55;38.75;;;;;;;;;;6286611;22;20017;-83
2022/11/14 06:13:26;;;;;;;84.15;38.45;;;;;;;;;;6294135;22;20004;-82
2022/11/14 06:15:52;;;;;;;91.70;37.45;;;;;;;;;;6262876;22;20015;-85
2022/11/14 06:18:18;;;;;;;89.13;37.08;;;;;;;;;;6255368;22;20003;-85
2022/11/14 06:20:45;;;;;;;82.47;35.05;;;;;;;;;;6256573;22;20010;-85
2022/11/14 06:23:11;;;;;;;93.75;36.05;;;;;;;;;;6282715;22;20045;-84
2022/11/14 06:25:37;;;;;;;85.90;37.10;;;;;;;;;;6282361;22;20000;-84
2022/11/14 06:28:03;;;;;;;98.78;40.10;;;;;;;;;;6280823;22;20390;-83
2022/11/14 06:30:30;;;;;;;86.88;36.05;;;;;;;;;;6255405;22;20010;-81
2022/11/14 06:32:57;;;;;;;98.13;37.83;;;;;;;;;;6281813;22;20002;-84
2022/11/14 06:35:23;;;;;;;97.53;39.42;;;;;;;;;;6280860;22;20046;-83
2022/11/14 06:37:49;;;;;;;90.53;36.75;;;;;;;;;;6281981;22;20339;-82
2022/11/14 06:40:15;;;;;;;88.63;37.97;;;;;;;;;;6253959;22;20006;-84
2022/11/14 06:42:41;;;;;;;94.95;39.28;;;;;;;;;;6282532;22;20006;-83
2022/11/14 06:45:08;;;;;;;95.10;40.83;;;;;;;;;;6281704;22;20009;-84
2022/11/14 06:47:34;;;;;;;87.53;39.72;;;;;;;;;;6266093;22;19999;-83
2022/11/14 06:50:00;;;;;;;97.30;38.05;;;;;;;;;;6284521;22;20483;-82
2022/11/14 06:52:26;;;;;;;85.45;35.78;;;;;;;;;;6255881;22;20016;-83
2022/11/14 06:54:52;;;;;;;91.07;37.20;;;;;;;;;;6282368;22;20006;-84
2022/11/14 06:57:18;;;;;;;91.38;37.88;;;;;;;;;;6282201;22;20011;-84
2022/11/14 06:59:44;;;;;;;84.80;38.00;;;;;;;;;;6282225;22;20063;-84
2022/11/14 07:02:12;;;;;;;86.22;36.95;;;;;;;;;;6281552;22;20035;-83
2022/11/14 07:04:39;;;;;;;93.32;37.63;;;;;;;;;;6282638;22;19996;-82
2022/11/14 07:07:05;;;;;;;89.53;39.85;;;;;;;;;;6255525;22;20452;-83
2022/11/14 07:09:31;;;;;;;87.45;36.30;;;;;;;;;;6255532;22;20193;-83
2022/11/14 07:11:57;;;;;;;84.28;37.63;;;;;;;;;;6253659;22;20076;-83
2022/11/14 07:14:23;;;;;;;89.65;37.88;;;;;;;;;;6254577;22;20003;-84
2022/11/14 07:16:49;;;;;;;81.47;36.42;;;;;;;;;;6281340;22;20339;-83
2022/11/14 07:19:15;;;;;;;86.07;39.42;;;;;;;;;;6281890;22;20006;-84
2022/11/14 07:21:41;;;;;;;86.00;37.35;;;;;;;;;;6254146;22;20008;-82
2022/11/14 07:24:07;;;;;;;86.82;36.78;;;;;;;;;;6254290;22;20065;-83
2022/11/14 07:26:33;;;;;;;89.95;34.95;;;;;;;;;;6254821;22;20344;-81
2022/11/14 07:28:59;;;;;;;90.70;37.22;;;;;;;;;;6253552;22;20000;-84
2022/11/14 07:31:25;;;;;;;97.38;38.47;;;;;;;;;;6281686;22;20006;-80
2022/11/14 07:33:51;;;;;;;87.32;38.38;;;;;;;;;;6252856;22;20039;-80
2022/11/14 07:36:18;;;;;;;86.90;37.40;;;;;;;;;;6281179;22;20000;-83
2022/11/14 07:38:44;;;;;;;74.30;33.55;;;;;;;;;;6273015;22;20016;-81
2022/11/14 07:41:11;;;;;;;81.15;37.95;;;;;;;;;;6272392;22;19995;-79
2022/11/14 07:43:37;;;;;;;79.97;34.83;;;;;;;;;;6295302;22;20000;-80
2022/11/14 07:46:05;;;;;;;84.40;35.65;;;;;;;;;;6298487;22;20010;-82
2022/11/14 07:48:31;;;;;;;82.60;36.08;;;;;;;;;;6284053;22;20102;-83
2022/11/14 07:50:58;;;;;;;82.85;35.97;;;;;;;;;;6283775;22;20000;-82
2022/11/14 07:53:24;;;;;;;84.70;35.70;;;;;;;;;;6281199;22;20487;-81
2022/11/14 07:55:50;;;;;;;76.35;35.40;;;;;;;;;;6281246;22;20000;-81
2022/11/14 07:58:17;;;;;;;83.22;36.60;;;;;;;;;;6283102;22;20432;-80
2022/11/14 08:00:43;;;;;;;80.60;34.85;;;;;;;;;;6282325;22;20032;-84
2022/11/14 08:03:10;;;;;;;82.00;35.70;;;;;;;;;;6255186;22;20073;-83
2022/11/14 08:05:36;;;;;;;81.47;37.28;;;;;;;;;;6256044;22;20011;-82
2022/11/14 08:08:02;;;;;;;76.82;33.50;;;;;;;;;;6282950;22;20119;-83
2022/11/14 08:10:28;;;;;;;76.93;36.28;;;;;;;;;;6297496;22;19996;-79
2022/11/14 08:12:59;;;;;;;73.50;33.20;;;;;;;;;;6296544;22;20030;-82
2022/11/14 08:15:25;;;;;;;77.05;32.83;;;;;;;;;;6297169;22;19999;-81
2022/11/14 08:17:51;;;;;;;73.32;33.58;;;;;;;;;;6292521;22;20031;-82
2022/11/14 08:20:17;;;;;;;61.92;31.52;;;;;;;;;;6282388;22;20435;-82
2022/11/14 08:22:44;;;;;;;66.85;33.30;;;;;;;;;;6282629;22;20011;-81
2022/11/14 08:25:10;;;;;;;67.70;32.75;;;;;;;;;;6282771;22;20000;-80
2022/11/14 08:27:35;;;;;;;57.92;28.92;;;;;;;;;;6255714;22;20535;-82
2022/11/14 08:30:01;;;;;;;64.25;31.27;;;;;;;;;;6281948;22;20000;-82
2022/11/14 08:32:28;;;;;;;60.58;29.48;;;;;;;;;;6254141;22;20098;-81
2022/11/14 08:34:54;;;;;;;61.53;29.45;;;;;;;;;;6254421;22;20002;-81
2022/11/14 08:37:20;;;;;;;56.40;28.73;;;;;;;;;;6281513;22;20067;-81
2022/11/14 08:39:46;;;;;;;54.97;28.48;;;;;;;;;;6285341;22;20056;-81
2022/11/14 08:42:12;;;;;;;58.75;29.40;;;;;;;;;;6288813;22;20004;-81
2022/11/14 08:44:38;;;;;;;51.28;26.50;;;;;;;;;;6280866;22;19999;-82
2022/11/14 08:47:04;;;;;;;51.75;27.35;;;;;;;;;;6255398;22;20134;-83
2022/11/14 08:49:30;;;;;;;52.67;27.17;;;;;;;;;;6281741;22;20243;-81
2022/11/14 08:51:56;;;;;;;51.08;26.23;;;;;;;;;;6255462;22;20012;-83
2022/11/14 08:54:22;;;;;;;50.33;27.63;;;;;;;;;;6254118;22;20086;-83
2022/11/14 08:56:48;;;;;;;54.05;26.42;;;;;;;;;;6254071;22;20133;-83
2022/11/14 08:59:14;;;;;;;50.28;27.02;;;;;;;;;;6280550;22;20004;-81
2022/11/14 09:01:40;;;;;;;48.38;24.08;;;;;;;;;;6280261;22;20012;-83
2022/11/14 09:04:07;;;;;;;46.28;24.58;;;;;;;;;;6280127;22;20018;-80
2022/11/14 09:06:33;;;;;;;42.42;23.77;;;;;;;;;;6280326;22;19999;-82
2022/11/14 09:08:59;;;;;;;43.60;23.52;;;;;;;;;;6278349;22;19999;-83
2022/11/14 09:11:25;;;;;;;44.08;25.23;;;;;;;;;;6280056;22;20004;-81
2022/11/14 09:13:51;;;;;;;40.35;23.20;;;;;;;;;;6280468;22;20003;-82
2022/11/14 09:16:17;;;;;;;42.15;21.88;;;;;;;;;;6252610;22;20166;-82
2022/11/14 09:18:44;;;;;;;43.63;23.55;;;;;;;;;;6279204;22;20000;-83
2022/11/14 09:21:10;;;;;;;35.22;21.67;;;;;;;;;;6280072;22;20459;-82
2022/11/14 09:23:37;;;;;;;37.88;21.75;;;;;;;;;;6280426;22;20010;-83
2022/11/14 09:26:07;;;;;;;32.80;20.40;;;;;;;;;;6252911;22;20458;-82
2022/11/14 09:28:33;;;;;;;35.78;20.35;;;;;;;;;;6253212;22;20003;-84
2022/11/14 09:31:03;;;;;;;35.28;20.23;;;;;;;;;;6253364;22;20015;-83
2022/11/14 09:33:29;;;;;;;31.58;18.95;;;;;;;;;;6286859;22;20570;-82
2022/11/14 09:35:59;;;;;;;31.20;17.98;;;;;;;;;;6263389;22;20004;-80
2022/11/14 09:38:26;;;;;;;34.75;18.45;;;;;;;;;;6285296;22;20007;-82
2022/11/14 09:40:52;;;;;;;29.45;18.38;;;;;;;;;;6253961;22;20035;-82
2022/11/14 09:43:31;;;;;;;33.85;19.48;;;;;;;;;;6279962;22;20002;-83
2022/11/14 09:45:58;;;;;;;31.92;18.75;;;;;;;;;;6280656;22;20343;-83
2022/11/14 09:48:28;;;;;;;33.17;19.20;;;;;;;;;;6281973;22;19996;-81
2022/11/14 09:51:03;;;;;;;31.80;17.45;;;;;;;;;;6279935;22;20419;-84
2022/11/14 09:53:39;;;;;;;35.28;19.45;;;;;;;;;;6279465;22;20049;-82
2022/11/14 09:56:09;;;;;;;32.95;19.65;;;;;;;;;;6279343;22;20006;-82
2022/11/14 09:58:35;;;;;;;39.28;24.30;;;;;;;;;;6278908;22;20010;-83
2022/11/14 10:01:05;;;;;;;41.25;26.30;;;;;;;;;;6252293;22;20012;-82
2022/11/14 10:03:37;;;;;;;36.28;21.38;;;;;;;;;;6251511;22;20011;-82
2022/11/14 10:06:07;;;;;;;34.45;20.48;;;;;;;;;;6278283;22;20000;-83
2022/11/14 10:08:36;;;;;;;32.22;18.77;;;;;;;;;;6280027;22;20006;-82
2022/11/14 10:11:08;;;;;;;31.17;17.17;;;;;;;;;;6278768;22;20003;-81
2022/11/14 10:13:34;;;;;;;;;;;;;;;;;;6279346;22;20082;-83
2022/11/14 10:16:15;;;;;;;29.08;17.08;;;;;;;;;;6279454;22;19906;-82
2022/11/14 10:18:48;;;;;;;29.67;18.30;;;;;;;;;;6280133;22;20000;-82
2022/11/14 10:21:23;;;;;;;30.85;17.98;;;;;;;;;;6278739;22;20004;-82
2022/11/14 10:24:03;;;;;;;29.35;17.60;;;;;;;;;;6252021;22;19999;-84
2022/11/14 10:26:30;;;;;;;27.42;16.77;;;;;;;;;;6250810;22;20347;-82
2022/11/14 10:28:56;;;;;;;26.85;16.27;;;;;;;;;;6278708;22;20006;-83
2022/11/14 10:31:37;;;;;;;29.42;17.67;;;;;;;;;;6252727;22;20004;-84
2022/11/14 10:34:03;;;;;;;27.17;17.52;;;;;;;;;;6254659;22;20000;-81
2022/11/14 10:36:33;;;;;;;29.05;17.80;;;;;;;;;;6256431;22;20436;-83
2022/11/14 10:39:09;;;;;;;28.98;17.50;;;;;;;;;;6280620;22;20000;-82
2022/11/14 10:41:35;;;;;;;28.45;16.48;;;;;;;;;;6277024;22;20003;-82
2022/11/14 10:44:02;;;;;;;30.85;17.10;;;;;;;;;;6278819;22;20007;-82
2022/11/14 10:46:28;;;;;;;29.23;16.92;;;;;;;;;;6250188;22;19996;-83
2022/11/14 10:48:54;;;;;;;28.42;16.70;;;;;;;;;;6277916;22;19999;-82
2022/11/14 10:51:20;;;;;;;28.88;17.13;;;;;;;;;;6252055;22;20003;-82
2022/11/14 10:53:51;;;;;;;26.73;15.35;;;;;;;;;;6251148;22;20010;-81
2022/11/14 10:56:17;;;;;;;29.60;16.00;;;;;;;;;;6250701;22;20067;-82
2022/11/14 10:58:44;;;;;;;25.38;15.35;;;;;;;;;;6277345;22;20007;-81
2022/11/14 11:01:29;;;;;;;29.05;16.15;;;;;;;;;;6251183;22;20436;-82
2022/11/14 11:03:55;;;;;;;28.38;17.58;;;;;;;;;;6279879;22;20021;-84
2022/11/14 11:06:25;;;;;;;28.02;17.30;;;;;;;;;;6277800;22;20022;-84
2022/11/14 11:11:37;;;;;;;28.33;16.40;;;;;;;;;;6279029;22;20352;-82
2022/11/14 11:14:03;;;;;;;28.75;17.08;;;;;;;;;;6277942;22;20056;-81
2022/11/14 11:16:29;;;;;;;25.65;15.43;;;;;;;;;;6278371;22;20000;-82
2022/11/14 11:19:16;;;;;;;27.90;16.42;;;;;;;;;;6277485;22;20028;-81
2022/11/14 11:21:49;;;;;;;25.80;16.42;;;;;;;;;;6252762;22;20011;-81
2022/11/14 11:24:31;;;;;;;26.08;16.60;;;;;;;;;;6278895;22;20032;-80
2022/11/14 11:27:30;;;;;;;26.90;16.33;;;;;;;;;;6251074;22;20436;-82
2022/11/14 11:30:05;;;;;;;27.70;17.00;;;;;;;;;;6123567;23;20114;-83
2022/11/14 11:32:31;;;;;;;29.15;18.30;;;;;;;;;;6100738;23;20013;-81
2022/11/14 11:34:59;;;;;;;27.30;16.80;;;;;;;;;;6101519;23;20006;-82
2022/11/14 11:37:38;;;;;;;30.52;17.55;;;;;;;;;;6125140;23;20005;-82
2022/11/14 11:40:05;;;;;;;28.05;16.58;;;;;;;;;;6100969;23;20020;-83
2022/11/14 11:42:31;;;;;;;24.65;16.25;;;;;;;;;;6101308;23;20033;-81
2022/11/14 11:44:59;;;;;;;27.10;15.80;;;;;;;;;;6106705;23;20472;-82
2022/11/14 11:47:26;;;;;;;25.10;15.35;;;;;;;;;;6095159;23;20035;-83
2022/11/14 11:49:52;;;;;;;23.17;15.80;;;;;;;;;;6096408;23;20371;-81
2022/11/14 11:52:32;;;;;;;25.08;14.98;;;;;;;;;;6095549;23;20045;-80
2022/11/14 11:55:03;;;;;;;23.83;16.42;;;;;;;;;;6073265;23;20010;-80
2022/11/14 11:57:38;;;;;;;23.58;15.07;;;;;;;;;;6072529;23;20016;-83
2022/11/14 12:00:23;;;;;;;25.85;16.35;;;;;;;;;;6071978;23;20014;-84
2022/11/14 12:02:51;;;;;;;28.98;18.48;;;;;;;;;;6097322;23;20127;-81
2022/11/14 12:05:31;;;;;;;29.08;17.55;;;;;;;;;;6157691;23;20200;-81
2022/11/14 12:08:06;;;;;;;26.77;15.95;;;;;;;;;;6248092;23;20071;-82
2022/11/14 12:10:35;;;;;;;26.08;16.50;;;;;;;;;;6246795;23;20016;-81
2022/11/14 12:13:20;;;;;;;24.23;16.15;;;;;;;;;;6246371;23;20106;-80
2022/11/14 12:16:15;;;;;;;24.13;15.90;;;;;;;;;;6248293;23;19992;-82
2022/11/14 12:18:47;;;;;;;25.63;16.35;;;;;;;;;;6164883;23;20006;-81
2022/11/14 12:21:22;;;;;;;25.73;17.00;;;;;;;;;;6246839;23;20091;-82
2022/11/14 12:23:51;;;;;;;24.92;15.75;;;;;;;;;;6220118;23;20086;-81
2022/11/14 12:26:23;;;;;;;22.05;15.20;;;;;;;;;;6221836;23;20004;-82
2022/11/14 12:29:08;;;;;;;26.50;16.20;;;;;;;;;;6249887;23;20053;-80
2022/11/14 12:31:36;;;;;;;23.98;15.38;;;;;;;;;;6253179;23;20054;-81
2022/11/14 12:34:04;;;;;;;25.60;15.85;;;;;;;;;;6222423;23;20011;-81
2022/11/14 12:36:31;;;;;;;25.67;15.88;;;;;;;;;;6249409;23;20075;-82
2022/11/14 12:38:59;;;;;;;25.90;15.40;;;;;;;;;;6221890;23;20012;-84
2022/11/14 12:41:30;;;;;;;25.10;15.90;;;;;;;;;;6247473;23;20069;-83
2022/11/14 12:44:34;;;;;;;24.98;14.25;;;;;;;;;;6224880;22;20046;-80
2022/11/14 12:47:04;;;;;;;23.50;14.77;;;;;;;;;;6124936;23;20447;-83
2022/11/14 12:49:35;;;;;;;26.30;15.63;;;;;;;;;;6126797;23;19998;-82
2022/11/14 12:52:01;;;;;;;25.67;16.38;;;;;;;;;;6101375;23;20173;-83
2022/11/14 12:54:44;;;;;;;23.25;14.75;;;;;;;;;;6125081;23;20422;-83
2022/11/14 12:57:46;;;;;;;24.63;15.93;;;;;;;;;;6102001;23;20026;-81
2022/11/14 13:00:02;;;;;;;24.88;15.10;;;;;;;;;;6135175;23;20010;-82
2022/11/14 13:02:37;;;;;;;24.35;14.23;;;;;;;;;;6131988;23;20014;-81
2022/11/14 13:05:16;;;;;;;22.52;13.25;;;;;;;;;;6126923;23;20407;-83
2022/11/14 13:07:42;;;;;;;25.45;14.95;;;;;;;;;;6125276;23;20002;-82
2022/11/14 13:10:28;;;;;;;22.13;13.85;;;;;;;;;;6101580;23;20450;-81
2022/11/14 13:21:58;;;;;;;24.67;16.15;;;;;;;;;;6278964;22;20394;-80
2022/11/14 13:24:24;;;;;;;24.00;15.38;;;;;;;;;;6278844;22;20000;-80
2022/11/14 13:26:54;;;;;;;24.58;13.32;;;;;;;;;;6281011;22;19996;-81
2022/11/14 13:29:38;;;;;;;25.73;15.48;;;;;;;;;;6279116;22;20382;-81
2022/11/14 13:32:09;;;;;;;29.10;16.35;;;;;;;;;;6279241;22;20332;-79
2022/11/14 13:34:58;;;;;;;23.50;14.63;;;;;;;;;;6277345;22;20472;-80
2022/11/14 13:37:41;;;;;;;25.42;15.65;;;;;;;;;;6252764;22;20003;-80
2022/11/14 13:40:19;;;;;;;22.48;14.98;;;;;;;;;;6279280;22;20382;-79
2022/11/14 13:42:48;;;;;;;26.02;15.60;;;;;;;;;;6279798;22;20000;-80
2022/11/14 13:45:21;;;;;;;24.55;14.93;;;;;;;;;;6278992;22;20007;-80
2022/11/14 13:47:47;;;;;;;26.60;15.68;;;;;;;;;;6278931;22;20462;-81
2022/11/14 13:50:29;;;;;;;25.63;15.98;;;;;;;;;;6253001;22;20003;-79
2022/11/14 13:52:55;;;;;;;27.50;16.13;;;;;;;;;;6279394;22;20006;-82
2022/11/14 13:55:22;;;;;;;26.92;15.48;;;;;;;;;;6277076;22;20322;-80
2022/11/14 13:58:15;;;;;;;27.67;17.40;;;;;;;;;;6277099;22;20062;-80
2022/11/14 14:00:50;;;;;;;29.30;16.98;;;;;;;;;;6249025;22;20037;-80
2022/11/14 14:03:19;;;;;;;29.95;16.70;;;;;;;;;;6250747;22;20010;-81
2022/11/14 14:06:08;;;;;;;33.17;17.80;;;;;;;;;;6250867;22;20395;-80
2022/11/14 14:08:52;;;;;;;30.83;17.10;;;;;;;;;;6277033;22;20007;-80
2022/11/14 14:11:27;;;;;;;32.22;18.85;;;;;;;;;;6251702;22;20059;-81
2022/11/14 14:14:05;;;;;;;34.45;19.15;;;;;;;;;;6278132;22;20003;-80
2022/11/14 14:16:31;;;;;;;39.15;17.80;;;;;;;;;;6277863;22;20004;-83
2022/11/14 14:19:20;;;;;;;34.35;19.17;;;;;;;;;;6278167;22;20000;-83
2022/11/14 14:21:58;;;;;;;34.53;19.23;;;;;;;;;;6281417;22;20264;-82
2022/11/14 14:24:33;;;;;;;38.15;19.25;;;;;;;;;;6256503;22;20003;-80
2022/11/14 14:27:12;;;;;;;41.03;21.23;;;;;;;;;;6296059;22;20003;-82
2022/11/14 14:29:50;;;;;;;35.20;19.35;;;;;;;;;;6294682;22;20370;-83
2022/11/14 14:32:18;;;;;;;38.30;21.02;;;;;;;;;;6297366;22;20004;-82
2022/11/14 14:34:44;;;;;;;40.33;20.73;;;;;;;;;;6269783;22;20011;-81
2022/11/14 14:37:29;;;;;;;43.88;21.05;;;;;;;;;;6288005;22;20006;-82